Terminal Aerodrome Forecast
Issued by NWS

Current Version | Previous Version | Text Only | Print | Product List | Glossary On
Versions: 1 2 3 4 5 6 7 8 9 10 11 12 13 14 15 16
440
FTUS45 KTFX 210153 AAA
TAFLWT
TAF AMD
KLWT 210153Z 2102/2124 24015G30KT P6SM -SHRA SCT060 BKN090
     FM210400 24010G20KT P6SM SCT090
     FM210800 23010KT P6SM SCT150
     FM211200 20010KT P6SM VCSH BKN080
     FM211500 21008KT P6SM -SHRA BKN040
     FM211900 28010KT P6SM VCSH BKN040=

USA.gov is the U.S. government's official web portal to all federal, state and local government web resources and services.